Teddy Meyer — WDF9635 — position and weather

sailwx.info

Track history (hours):
 
Tides and Currents Weather Stations Pressure Air Temp Water Temp Dewpoint Dewpoint Depression Visibility Wind Speed Wind Dir Waves Ship Positions

Teddy Meyer

Owner: LeBeouf Bros. Towing, LLC, Houma, LA. More information available from US FCC via Universal Licensing System and Coast Guard Vessel Documentation Center.

Last reported at 2015-Apr-19 03:33 UTC. Time now 2015-Apr-19 04:33 UTC.
Position N 29°44' W 095°12'.

; draft 3 m.

MMSI: 367507220.

Date/timePositionNaut miles runAvg speedWind from/ knotsBaromVisibWave heightAir tempDewpointWater temp
2015-Apr-19 03:33N 29°44' W 095°12'0 0.0
2015-Apr-19 02:34N 29°44' W 095°12'0 0.0
2015-Apr-19 01:33N 29°44' W 095°12'0 0.0
2015-Apr-19 00:33N 29°44' W 095°12'0 0.0
2015-Apr-18 23:33N 29°44' W 095°12'0 0.0
2015-Apr-18 22:34N 29°44' W 095°12'0 0.0
2015-Apr-18 21:33N 29°44' W 095°12'3 2.9
2015-Apr-18 20:33N 29°44' W 095°09'6 5.5
2015-Apr-18 19:33N 29°47' W 095°04'0 0.1
2015-Apr-18 18:33N 29°47' W 095°04'2 2.4
2015-Apr-18 17:33N 29°46' W 095°06'0 0.0
2015-Apr-18 16:33N 29°46' W 095°06'0 0.0
2015-Apr-18 15:33N 29°46' W 095°06'0 0.0
2015-Apr-18 14:32N 29°46' W 095°06'0 0.0
2015-Apr-18 13:33N 29°46' W 095°06'0 0.0
2015-Apr-18 12:32N 29°46' W 095°06'0 0.0
2015-Apr-18 11:33N 29°46' W 095°06'0 0.0
2015-Apr-18 10:33N 29°46' W 095°06'0 0.0
2015-Apr-18 09:33N 29°46' W 095°06'0 0.0
2015-Apr-18 08:33N 29°46' W 095°06'0 0.0
2015-Apr-18 07:32N 29°46' W 095°06'0 0.0
2015-Apr-18 06:33N 29°46' W 095°06'0 0.0
2015-Apr-18 05:27N 29°46' W 095°06'0 0.0
2015-Apr-18 04:29N 29°46' W 095°06'0 0.0
2015-Apr-18 03:33N 29°46' W 095°06'0 0.0
2015-Apr-18 02:33N 29°46' W 095°06'0 0.0
2015-Apr-18 01:33N 29°46' W 095°06'0 0.0
2015-Apr-18 00:33N 29°46' W 095°06'0 0.0
2015-Apr-17 23:33N 29°46' W 095°06'0 0.0
2015-Apr-17 22:33N 29°46' W 095°06'0 0.0
2015-Apr-17 21:33N 29°46' W 095°06'0 0.0
2015-Apr-17 20:33N 29°46' W 095°06'0 0.0
2015-Apr-17 19:33N 29°46' W 095°06'0 0.0
2015-Apr-17 18:33N 29°46' W 095°06'0 0.0
2015-Apr-17 17:33N 29°46' W 095°06'0 0.0
2015-Apr-17 16:33N 29°46' W 095°06'0 0.0
2015-Apr-17 15:33N 29°46' W 095°06'0 0.0
2015-Apr-17 14:33N 29°46' W 095°06'0 0.0
2015-Apr-17 13:33N 29°46' W 095°06'0 0.0
2015-Apr-16 06:23N 29°46' W 095°06'0 0.0
2015-Apr-16 05:27N 29°46' W 095°06'0 0.0
2015-Apr-16 04:19N 29°46' W 095°06'0 0.0
2015-Apr-16 00:12N 29°46' W 095°06'1 0.1
2015-Apr-15 18:33N 29°46' W 095°05'1 0.0
2015-Apr-14 05:14N 29°46' W 095°06'0 0.0
2015-Apr-12 05:33N 29°46' W 095°06'0 0.0
2015-Apr-12 04:33N 29°46' W 095°06'0 0.0
2015-Apr-12 03:12N 29°46' W 095°06'0 0.0
2015-Apr-12 02:30N 29°46' W 095°06'0 0.0
2015-Apr-12 01:32N 29°46' W 095°06'0 0.0
2015-Apr-12 00:33N 29°46' W 095°06'0 0.0
2015-Apr-11 23:31N 29°46' W 095°06'0 0.0
2015-Apr-11 22:30N 29°46' W 095°06'0 0.0
2015-Apr-11 21:19N 29°46' W 095°06'0 0.0
2015-Apr-11 18:31N 29°46' W 095°06'0 0.0
2015-Apr-11 17:27N 29°46' W 095°06'0 0.0
2015-Apr-11 16:33N 29°46' W 095°06'0 0.0
2015-Apr-11 15:18N 29°46' W 095°06'0 0.0
2015-Apr-11 14:27N 29°46' W 095°06'0 0.0
2015-Apr-11 09:23N 29°46' W 095°06'0 0.0
2015-Apr-11 08:23N 29°46' W 095°06'0 0.0
2015-Apr-11 07:23N 29°46' W 095°06'0 0.0
2015-Apr-11 06:33N 29°46' W 095°06'0 0.0
2015-Apr-11 05:32N 29°46' W 095°06'0 0.0
2015-Apr-11 04:32N 29°46' W 095°06'0 0.0
2015-Apr-11 03:34N 29°46' W 095°06'0 0.0
2015-Apr-11 02:33N 29°46' W 095°06'0 0.0
2015-Apr-11 01:30N 29°46' W 095°06'0 0.0
2015-Apr-11 00:34N 29°46' W 095°06'0 0.0
2015-Apr-10 23:33N 29°46' W 095°06'0 0.0
2015-Apr-10 22:33N 29°46' W 095°06'0 0.0
2015-Apr-10 21:33N 29°46' W 095°06'0 0.0
2015-Apr-10 20:34N 29°46' W 095°06'0 0.0
2015-Apr-10 19:33N 29°46' W 095°06'0 0.0
2015-Apr-10 17:33N 29°46' W 095°06'0 0.0
2015-Apr-10 13:26N 29°46' W 095°06'0 0.0
2015-Apr-09 22:03N 29°46' W 095°06'0 0.0
2015-Apr-09 21:33N 29°46' W 095°06'0 0.0
2015-Apr-09 20:33N 29°46' W 095°06'0 0.0
2015-Apr-09 19:33N 29°46' W 095°06'0 0.0
2015-Apr-09 18:33N 29°46' W 095°06'0 0.0
2015-Apr-09 17:33N 29°46' W 095°06'0 0.0
2015-Apr-09 16:33N 29°46' W 095°06'0 0.0
2015-Apr-09 15:23N 29°46' W 095°06'0 0.0
2015-Apr-09 14:31N 29°46' W 095°06'0 0.0
2015-Apr-09 13:21N 29°46' W 095°06'0 0.0
2015-Apr-09 08:09N 29°46' W 095°06'0 0.0
2015-Apr-09 07:10N 29°46' W 095°06'  
Track history (hours):
 
Tides and Currents Weather Stations Pressure Air Temp Water Temp Dewpoint Dewpoint Depression Visibility Wind Speed Wind Dir Waves Ship Positions

Teddy Meyer

Owner: LeBeouf Bros. Towing, LLC, Houma, LA. More information available from US FCC via Universal Licensing System and Coast Guard Vessel Documentation Center.

Last reported at 2015-Apr-19 03:33 UTC. Time now 2015-Apr-19 04:33 UTC.
Position N 29°44' W 095°12'.

; draft 3 m.

MMSI: 367507220.

Date/timePositionNaut miles runAvg speedWind from/ knotsBaromVisibWave heightAir tempDewpointWater temp
2015-Apr-19 03:33N 29°44' W 095°12'0 0.0
2015-Apr-19 02:34N 29°44' W 095°12'0 0.0
2015-Apr-19 01:33N 29°44' W 095°12'0 0.0
2015-Apr-19 00:33N 29°44' W 095°12'0 0.0
2015-Apr-18 23:33N 29°44' W 095°12'0 0.0
2015-Apr-18 22:34N 29°44' W 095°12'0 0.0
2015-Apr-18 21:33N 29°44' W 095°12'3 2.9
2015-Apr-18 20:33N 29°44' W 095°09'6 5.5
2015-Apr-18 19:33N 29°47' W 095°04'0 0.1
2015-Apr-18 18:33N 29°47' W 095°04'2 2.4
2015-Apr-18 17:33N 29°46' W 095°06'0 0.0
2015-Apr-18 16:33N 29°46' W 095°06'0 0.0
2015-Apr-18 15:33N 29°46' W 095°06'0 0.0
2015-Apr-18 14:32N 29°46' W 095°06'0 0.0
2015-Apr-18 13:33N 29°46' W 095°06'0 0.0
2015-Apr-18 12:32N 29°46' W 095°06'0 0.0
2015-Apr-18 11:33N 29°46' W 095°06'0 0.0
2015-Apr-18 10:33N 29°46' W 095°06'0 0.0
2015-Apr-18 09:33N 29°46' W 095°06'0 0.0
2015-Apr-18 08:33N 29°46' W 095°06'0 0.0
2015-Apr-18 07:32N 29°46' W 095°06'0 0.0
2015-Apr-18 06:33N 29°46' W 095°06'0 0.0
2015-Apr-18 05:27N 29°46' W 095°06'0 0.0
2015-Apr-18 04:29N 29°46' W 095°06'0 0.0
2015-Apr-18 03:33N 29°46' W 095°06'0 0.0
2015-Apr-18 02:33N 29°46' W 095°06'0 0.0
2015-Apr-18 01:33N 29°46' W 095°06'0 0.0
2015-Apr-18 00:33N 29°46' W 095°06'0 0.0
2015-Apr-17 23:33N 29°46' W 095°06'0 0.0
2015-Apr-17 22:33N 29°46' W 095°06'0 0.0
2015-Apr-17 21:33N 29°46' W 095°06'0 0.0
2015-Apr-17 20:33N 29°46' W 095°06'0 0.0
2015-Apr-17 19:33N 29°46' W 095°06'0 0.0
2015-Apr-17 18:33N 29°46' W 095°06'0 0.0
2015-Apr-17 17:33N 29°46' W 095°06'0 0.0
2015-Apr-17 16:33N 29°46' W 095°06'0 0.0
2015-Apr-17 15:33N 29°46' W 095°06'0 0.0
2015-Apr-17 14:33N 29°46' W 095°06'0 0.0
2015-Apr-17 13:33N 29°46' W 095°06'0 0.0
2015-Apr-16 06:23N 29°46' W 095°06'0 0.0
2015-Apr-16 05:27N 29°46' W 095°06'0 0.0
2015-Apr-16 04:19N 29°46' W 095°06'0 0.0
2015-Apr-16 00:12N 29°46' W 095°06'1 0.1
2015-Apr-15 18:33N 29°46' W 095°05'1 0.0
2015-Apr-14 05:14N 29°46' W 095°06'0 0.0
2015-Apr-12 05:33N 29°46' W 095°06'0 0.0
2015-Apr-12 04:33N 29°46' W 095°06'0 0.0
2015-Apr-12 03:12N 29°46' W 095°06'0 0.0
2015-Apr-12 02:30N 29°46' W 095°06'0 0.0
2015-Apr-12 01:32N 29°46' W 095°06'0 0.0
2015-Apr-12 00:33N 29°46' W 095°06'0 0.0
2015-Apr-11 23:31N 29°46' W 095°06'0 0.0
2015-Apr-11 22:30N 29°46' W 095°06'0 0.0
2015-Apr-11 21:19N 29°46' W 095°06'0 0.0
2015-Apr-11 18:31N 29°46' W 095°06'0 0.0
2015-Apr-11 17:27N 29°46' W 095°06'0 0.0
2015-Apr-11 16:33N 29°46' W 095°06'0 0.0
2015-Apr-11 15:18N 29°46' W 095°06'0 0.0
2015-Apr-11 14:27N 29°46' W 095°06'0 0.0
2015-Apr-11 09:23N 29°46' W 095°06'0 0.0
2015-Apr-11 08:23N 29°46' W 095°06'0 0.0
2015-Apr-11 07:23N 29°46' W 095°06'0 0.0
2015-Apr-11 06:33N 29°46' W 095°06'0 0.0
2015-Apr-11 05:32N 29°46' W 095°06'0 0.0
2015-Apr-11 04:32N 29°46' W 095°06'0 0.0
2015-Apr-11 03:34N 29°46' W 095°06'0 0.0
2015-Apr-11 02:33N 29°46' W 095°06'0 0.0
2015-Apr-11 01:30N 29°46' W 095°06'0 0.0
2015-Apr-11 00:34N 29°46' W 095°06'0 0.0
2015-Apr-10 23:33N 29°46' W 095°06'0 0.0
2015-Apr-10 22:33N 29°46' W 095°06'0 0.0
2015-Apr-10 21:33N 29°46' W 095°06'0 0.0
2015-Apr-10 20:34N 29°46' W 095°06'0 0.0
2015-Apr-10 19:33N 29°46' W 095°06'0 0.0
2015-Apr-10 17:33N 29°46' W 095°06'0 0.0
2015-Apr-10 13:26N 29°46' W 095°06'0 0.0
2015-Apr-09 22:03N 29°46' W 095°06'0 0.0
2015-Apr-09 21:33N 29°46' W 095°06'0 0.0
2015-Apr-09 20:33N 29°46' W 095°06'0 0.0
2015-Apr-09 19:33N 29°46' W 095°06'0 0.0
2015-Apr-09 18:33N 29°46' W 095°06'0 0.0
2015-Apr-09 17:33N 29°46' W 095°06'0 0.0
2015-Apr-09 16:33N 29°46' W 095°06'0 0.0
2015-Apr-09 15:23N 29°46' W 095°06'0 0.0
2015-Apr-09 14:31N 29°46' W 095°06'0 0.0
2015-Apr-09 13:21N 29°46' W 095°06'0 0.0
2015-Apr-09 08:09N 29°46' W 095°06'0 0.0
2015-Apr-09 07:10N 29°46' W 095°06'  

Dump ship's entire track history